Flight Track Log - Related Links

Times and Time Zones

All times are in EDT time to prevent confusion due to time zone crossing. See the DAL2238 flight status page for this flight to view local times or setup timezone preferences in your user account.

Time Position Orientation Groundspeed Altitude Reporting Facility
EDT Latitude Longitude Course Direction KTS MPH feet Rate Location/Type
Tue 01:24:49 PM 33.6500 -84.3833 53° Northeast 164 189 2,500  Level Atlanta TRACON
Tue 01:25:49 PM 33.6500 -84.3167 90° East 238 274 5,000 2,857 Climbing Atlanta TRACON
Tue 01:26:55 PM 33.6833 -84.2333 64° Northeast 278 320 8,500 1,957 Climbing Atlanta TRACON
Tue 01:27:00 PM 33.8657 -84.1350 54° Northeast  Level Estimated
Tue 01:28:00 PM 33.9419 -84.0371 48° Northeast  Level Estimated
Tue 01:28:53 PM 33.7378 -84.0314 72° East 314 361 11,000  Level Atlanta Center
Tue 01:29:00 PM 34.0180 -83.9389 53° Northeast  Level Estimated
Tue 01:29:53 PM 33.8006 -83.9289 54° Northeast 363 418 14,100  Level Atlanta Center
Tue 01:30:53 PM 33.8672 -83.8186 54° Northeast 396 456 16,700 2,400 Climbing Atlanta Center
Tue 01:31:53 PM 33.9294 -83.7183 53° Northeast 401 461 18,900 2,200 Climbing Atlanta Center
Tue 01:32:53 PM 34.0022 -83.6028 53° Northeast 420 483 21,100 2,150 Climbing Atlanta Center
Tue 01:33:53 PM 34.0769 -83.4844 53° Northeast 435 501 23,200 2,200 Climbing Atlanta Center
Tue 01:34:53 PM 34.1533 -83.3636 53° Northeast 443 510 25,500 2,450 Climbing Atlanta Center
Tue 01:35:53 PM 34.2278 -83.2422 53° Northeast 449 517 28,100 2,250 Climbing Atlanta Center
Tue 01:36:53 PM 34.3000 -83.1233 54° Northeast 443 510 30,000 1,700 Climbing Atlanta Center
Tue 01:37:53 PM 34.3700 -83.0069 54° Northeast 431 496 31,500 1,450 Climbing Atlanta Center
Tue 01:38:53 PM 34.4442 -82.8878 53° Northeast 437 503 32,900 1,250 Climbing Atlanta Center
Tue 01:39:53 PM 34.5242 -82.7581 53° Northeast 430 495 34,000 1,000 Climbing Atlanta Center
Tue 01:40:53 PM 34.5919 -82.6383 55° Northeast 435 501 34,900 750 Climbing Atlanta Center
Tue 01:41:53 PM 34.6739 -82.5233 49° Northeast 429 494 35,500 650 Climbing Atlanta Center
Tue 01:42:53 PM 34.7494 -82.3981 54° Northeast 444 511 36,200 650 Climbing Atlanta Center
Tue 01:43:53 PM 34.8231 -82.2778 53° Northeast 449 517 36,800 400 Climbing Atlanta Center
Tue 01:44:53 PM 34.9006 -82.1519 53° Northeast 449 517 37,000 100 Climbing Atlanta Center
Tue 01:45:53 PM 34.9656 -82.0442 54° Northeast 449 517 37,000  Level Atlanta Center
Tue 01:46:53 PM 35.0386 -81.9156 55° Northeast 449 517 37,000  Level Atlanta Center
Tue 01:47:53 PM 35.1092 -81.7892 56° Northeast 449 517 37,000  Level Atlanta Center
Tue 01:48:53 PM 35.1778 -81.6578 57° Northeast 449 517 37,000 -100 Level Atlanta Center
Tue 01:49:53 PM 35.2461 -81.5286 57° Northeast 454 522 36,800 -950 Descending Atlanta Center
Tue 01:50:53 PM 35.3142 -81.3942 58° Northeast 459 528 35,100 -900 Descending Atlanta Center
Tue 01:51:53 PM 35.3844 -81.2622 57° Northeast 459 528 35,000 -600 Descending Atlanta Center
Tue 01:52:53 PM 35.4500 -81.1272 59° Northeast 459 528 33,900 -1,000 Descending Atlanta Center
Tue 01:53:53 PM 35.5219 -80.9919 57° Northeast 464 534 33,000 -450 Descending Atlanta Center
Tue 01:54:53 PM 35.5917 -80.8592 57° Northeast 464 534 33,000  Level Atlanta Center
Tue 01:55:53 PM 35.6611 -80.7286 57° Northeast 464 534 33,000  Level Atlanta Center
Tue 01:56:53 PM 35.7306 -80.5956 57° Northeast 464 534 33,000  Level Atlanta Center
Tue 01:57:53 PM 35.7975 -80.4594 59° Northeast 459 528 33,000  Level Atlanta Center
Tue 01:58:53 PM 35.8667 -80.3258 57° Northeast 464 534 33,000  Level Atlanta Center
Tue 01:59:53 PM 35.9353 -80.1867 59° Northeast 464 534 33,000  Level Atlanta Center
Tue 02:02:15 PM 36.1042 -79.8803 56° Northeast 468 539 33,000  Level Washington Center
Tue 02:03:15 PM 36.1781 -79.7400 57° Northeast 474 545 33,000  Level Washington Center
Tue 02:04:13 PM 36.2622 -79.5953 54° Northeast 474 545 33,000  Level Washington Center
Tue 02:05:13 PM 36.3311 -79.4722 55° Northeast 480 552 33,000 -1,033 Level Washington Center
Tue 02:06:15 PM 36.4172 -79.3167 55° Northeast 485 558 30,900 -2,656 Descending Washington Center
Tue 02:07:15 PM 36.4947 -79.1781 55° Northeast 485 558 27,600 -2,746 Descending Washington Center
Tue 02:08:13 PM 36.5714 -79.0472 54° Northeast 480 552 25,500 -1,322 Descending Washington Center
Tue 02:09:13 PM 36.6442 -78.9133 56° Northeast 469 540 25,000 -250 Descending Washington Center
Tue 02:10:13 PM 36.7100 -78.7917 56° Northeast 469 540 25,000  Level Washington Center
Tue 02:11:14 PM 36.7825 -78.6597 56° Northeast 469 540 25,000  Level Washington Center
Tue 02:12:15 PM 36.8611 -78.5150 56° Northeast 463 533 25,000 -403 Level Washington Center
Tue 02:13:13 PM 36.9264 -78.4006 54° Northeast 457 526 24,200 -1,169 Descending Washington Center
Tue 02:14:13 PM 37.0006 -78.2653 56° Northeast 448 516 22,700 -1,091 Descending Washington Center
Tue 02:15:14 PM 37.0528 -78.1656 57° Northeast 403 464 22,000 -344 Descending Washington Center
Tue 02:16:15 PM 37.1092 -78.0661 55° Northeast 374 430 22,000  Level Washington Center
Tue 02:17:15 PM 37.1961 -77.9931 34° Northeast 348 400 22,000  Level Washington Center
Tue 02:18:13 PM 37.2828 -77.9253 32° Northeast 358 412 22,000  Level Washington Center
Tue 02:19:13 PM 37.3739 -77.8578 30° Northeast 364 419 22,000  Level Washington Center
Tue 02:20:14 PM 37.4628 -77.7922 30° Northeast 370 426 22,000 -541 Level Washington Center
Tue 02:21:15 PM 37.5517 -77.7214 32° Northeast 370 426 20,900 -1,250 Descending Washington Center
Tue 02:22:14 PM 37.6383 -77.6583 30° Northeast 365 420 19,500 -1,361 Descending Washington Center
Tue 02:23:14 PM 37.7228 -77.5925 32° Northeast 365 420 18,200 -1,150 Descending Washington Center
Tue 02:24:14 PM 37.8053 -77.5289 31° Northeast 360 414 17,200 3,372 Descending Washington Center
Tue 02:25:15 PM 37.8853 -77.4678 31° Northeast 353 406 25,000 -1,350 Climbing Washington Center
Tue 02:26:14 PM 37.9678 -77.4039 31° Northeast 343 395 14,500 -6,000 Descending Washington Center
Tue 02:27:14 PM 38.0519 -77.3428 30° Northeast 330 380 13,100 -1,388 Descending Washington Center
Tue 02:28:15 PM 38.1300 -77.2839 31° Northeast 325 374 11,700 -1,289 Descending Washington Center
Tue 02:29:15 PM 38.2058 -77.2275 30° Northeast 318 366 10,500 -864 Descending Washington Center
Tue 02:30:13 PM 38.2797 -77.1656 33° Northeast 313 360 10,000 -559 Descending Washington Center
Tue 02:31:13 PM 38.3492 -77.1167 29° Northeast 299 344 9,400 -1,041 Descending Washington Center
Tue 02:32:14 PM 38.4167 -77.0597 33° Northeast 294 338 7,900 -1,426 Descending Washington Center
Tue 02:33:15 PM 38.4797 -77.0106 31° Northeast 282 325 6,500 -1,361 Descending Washington Center
Tue 02:34:13 PM 38.5486 -77.0067 North 251 289 5,200 9,407 Descending Washington Center
Tue 02:35:13 PM 38.6172 -77.0158 354° North 241 277 25,000 -1,339 Climbing Washington Center
Tue 02:36:14 PM 38.6858 -77.0253 354° North 241 277 2,500 -11,504 Descending Washington Center
Tue 02:37:14 PM 38.7381 -77.0289 357° North 219 252 1,800 -619 Descending Washington Center
Tue 02:38:20 PM 38.7833 -77.0333 356° North 127 146 1,200 -591 Descending Potomac TRACON
Tue 02:39:26 PM 38.8167 -77.0333 360° North 126 145 500 -636 Descending Potomac TRACON

Login

Don't have an account? Register now (free) for customized features, flight alerts, and more!